createdAt,value
2023-05-01T00:00:05.595Z,9.77
2023-05-01T00:02:34.268Z,8.43
2023-05-01T00:05:04.319Z,7.57
2023-05-01T00:07:32.708Z,10.47
2023-05-01T00:10:01.085Z,10.33
2023-05-01T00:12:29.475Z,9.77
2023-05-01T00:14:57.736Z,10.37
2023-05-01T00:17:26.109Z,9.83
2023-05-01T00:19:54.890Z,8.43
2023-05-01T00:22:24.702Z,8.83
2023-05-01T00:24:53.199Z,9.00
2023-05-01T00:27:21.468Z,8.57
2023-05-01T00:29:49.811Z,8.20
2023-05-01T00:32:18.156Z,9.33
2023-05-01T00:34:48.444Z,8.03
2023-05-01T00:37:17.429Z,8.40
2023-05-01T00:39:47.052Z,6.70
2023-05-01T00:42:15.603Z,10.13
2023-05-01T00:44:43.804Z,11.27
2023-05-01T00:47:12.094Z,10.10
2023-05-01T00:49:40.316Z,8.93
2023-05-01T00:52:09.848Z,7.37
2023-05-01T00:54:38.171Z,7.27
2023-05-01T00:57:08.253Z,7.70
2023-05-01T00:59:36.464Z,6.47
2023-05-01T01:02:04.835Z,6.07
2023-05-01T01:04:33.473Z,10.80
2023-05-01T01:07:06.516Z,9.37
2023-05-01T01:09:39.252Z,6.97
2023-05-01T01:12:15.527Z,7.27
2023-05-01T01:14:47.552Z,8.67
2023-05-01T01:17:19.072Z,7.70
2023-05-01T01:19:58.020Z,8.10
2023-05-01T01:22:28.176Z,8.63
2023-05-01T01:25:00.925Z,7.53
2023-05-01T01:27:47.715Z,6.03
2023-05-01T01:30:34.347Z,10.17
2023-05-01T01:33:14.037Z,6.33
2023-05-01T01:35:44.704Z,9.47
2023-05-01T01:38:16.683Z,6.00
2023-05-01T01:40:46.989Z,6.87
2023-05-01T01:43:17.765Z,8.63
2023-05-01T01:45:49.746Z,8.83
2023-05-01T01:48:19.703Z,7.83
2023-05-01T01:50:49.715Z,7.17
2023-05-01T01:53:19.587Z,8.97
2023-05-01T01:55:49.524Z,7.63
2023-05-01T01:58:18.353Z,9.70
2023-05-01T02:00:47.012Z,8.17
2023-05-01T02:03:16.404Z,6.57
2023-05-01T02:05:45.035Z,6.27
2023-05-01T02:08:15.134Z,6.83
2023-05-01T02:10:44.696Z,7.50
2023-05-01T02:13:14.597Z,8.90
2023-05-01T02:15:42.904Z,7.40
2023-05-01T02:18:11.486Z,6.40
2023-05-01T02:20:40.001Z,8.50
2023-05-01T02:23:08.980Z,6.97
2023-05-01T02:25:40.284Z,7.37
2023-05-01T02:28:10.836Z,5.80
2023-05-01T02:30:40.094Z,9.60
2023-05-01T02:33:08.986Z,7.07
2023-05-01T02:35:41.648Z,7.33
2023-05-01T02:38:10.035Z,6.63
2023-05-01T02:40:40.293Z,6.50
2023-05-01T02:43:11.027Z,5.63
2023-05-01T02:45:40.184Z,5.90
2023-05-01T02:48:09.506Z,6.77
2023-05-01T02:50:40.599Z,9.80
2023-05-01T02:53:09.644Z,8.60
2023-05-01T02:55:37.928Z,8.07
2023-05-01T02:58:07.459Z,5.50
2023-05-01T03:00:36.046Z,7.67
2023-05-01T03:03:04.321Z,7.83
2023-05-01T03:05:32.993Z,7.17
2023-05-01T03:08:01.180Z,7.70
2023-05-01T03:10:29.464Z,5.77
2023-05-01T03:12:57.677Z,7.67
2023-05-01T03:15:27.260Z,6.23
2023-05-01T03:17:55.584Z,7.93
2023-05-01T03:20:25.285Z,6.57
2023-05-01T03:22:54.034Z,6.60
2023-05-01T03:25:22.230Z,7.63
2023-05-01T03:27:50.516Z,5.20
2023-05-01T03:30:19.375Z,6.93
2023-05-01T03:32:48.988Z,9.60
2023-05-01T03:35:17.323Z,5.50
2023-05-01T03:37:45.577Z,7.43
2023-05-01T03:40:14.463Z,6.27
2023-05-01T03:42:42.649Z,7.40
2023-05-01T03:45:11.424Z,7.80
2023-05-01T03:47:39.808Z,6.53
2023-05-01T03:50:09.946Z,8.00
2023-05-01T03:52:38.145Z,6.87
2023-05-01T03:55:07.498Z,7.47
2023-05-01T03:57:36.601Z,7.47
2023-05-01T04:00:05.481Z,6.20
2023-05-01T04:02:33.764Z,6.77
2023-05-01T04:05:01.988Z,7.87
2023-05-01T04:07:31.533Z,6.03
2023-05-01T04:09:59.728Z,7.07
2023-05-01T04:12:27.893Z,6.70
2023-05-01T04:14:56.148Z,6.10
2023-05-01T04:17:25.422Z,9.97
2023-05-01T04:19:54.828Z,6.83
2023-05-01T04:22:23.447Z,6.83
2023-05-01T04:24:53.204Z,7.90
2023-05-01T04:27:21.666Z,8.53
2023-05-01T04:29:49.889Z,6.30
2023-05-01T04:32:18.163Z,5.03
2023-05-01T04:34:46.370Z,5.30
2023-05-01T04:37:14.696Z,7.43
2023-05-01T04:39:42.916Z,10.03
2023-05-01T04:42:12.645Z,8.27
2023-05-01T04:44:40.994Z,7.07
2023-05-01T04:47:09.455Z,7.23
2023-05-01T04:49:37.759Z,5.03
2023-05-01T04:52:06.232Z,5.50
2023-05-01T04:54:34.466Z,8.07
2023-05-01T04:57:03.254Z,8.17
2023-05-01T04:59:32.903Z,6.07
2023-05-01T05:02:01.249Z,4.57
2023-05-01T05:04:29.517Z,6.07
2023-05-01T05:06:57.710Z,6.60
2023-05-01T05:09:25.923Z,6.20
2023-05-01T05:11:54.090Z,4.67
2023-05-01T05:14:22.299Z,8.40
2023-05-01T05:16:52.053Z,6.73
2023-05-01T05:19:20.382Z,7.63
2023-05-01T05:21:50.577Z,8.37
2023-05-01T05:24:18.847Z,5.93
2023-05-01T05:26:47.040Z,5.40
2023-05-01T05:29:15.593Z,7.17
2023-05-01T05:31:43.823Z,8.60
2023-05-01T05:34:13.393Z,7.10
2023-05-01T05:36:41.676Z,6.37
2023-05-01T05:39:09.911Z,5.87
2023-05-01T05:41:38.210Z,5.90
2023-05-01T05:44:06.491Z,5.57
2023-05-01T05:46:34.809Z,9.20
2023-05-01T05:49:03.041Z,6.70
2023-05-01T05:51:32.630Z,5.23
2023-05-01T05:54:00.866Z,6.17
2023-05-01T05:56:29.150Z,5.53
2023-05-01T05:58:57.348Z,7.00
2023-05-01T06:01:25.539Z,6.03
2023-05-01T06:03:53.850Z,4.90
2023-05-01T06:06:22.103Z,11.70
2023-05-01T06:08:51.957Z,4.40
2023-05-01T06:11:21.502Z,7.13
2023-05-01T06:13:49.713Z,5.93
2023-05-01T06:16:18.035Z,5.27
2023-05-01T06:18:46.597Z,6.23
2023-05-01T06:21:15.001Z,7.53
2023-05-01T06:23:43.193Z,9.43
2023-05-01T06:26:12.797Z,7.00
2023-05-01T06:28:41.013Z,4.83
2023-05-01T06:31:10.748Z,4.90
2023-05-01T06:33:38.964Z,5.07
2023-05-01T06:36:09.526Z,4.73
2023-05-01T06:38:37.728Z,6.83
2023-05-01T06:41:06.213Z,6.43
2023-05-01T06:43:35.811Z,7.67
2023-05-01T06:46:04.090Z,5.17
2023-05-01T06:48:32.591Z,6.87
2023-05-01T06:51:00.816Z,5.50
2023-05-01T06:53:29.087Z,5.63
2023-05-01T06:55:57.282Z,4.30
2023-05-01T06:58:25.628Z,8.73
2023-05-01T07:00:55.865Z,6.80
2023-05-01T07:03:24.195Z,5.07
2023-05-01T07:05:52.475Z,7.83
2023-05-01T07:08:20.677Z,8.03
2023-05-01T07:10:49.626Z,7.20
2023-05-01T07:13:18.181Z,5.47
2023-05-01T07:15:46.680Z,6.17
2023-05-01T07:18:17.121Z,6.40
2023-05-01T07:20:45.590Z,5.33
2023-05-01T07:23:13.866Z,6.67
2023-05-01T07:25:42.778Z,7.07
2023-05-01T07:28:11.019Z,8.10
2023-05-01T07:30:39.631Z,6.77
2023-05-01T07:33:07.898Z,4.87
2023-05-01T07:35:39.930Z,5.57
2023-05-01T07:38:08.782Z,6.03
2023-05-01T07:40:38.423Z,5.23
2023-05-01T07:43:07.311Z,5.37
2023-05-01T07:45:35.579Z,8.60
2023-05-01T07:48:04.980Z,4.50
2023-05-01T07:50:33.546Z,5.37
2023-05-01T07:53:03.107Z,6.97
2023-05-01T07:55:31.372Z,6.27
2023-05-01T07:57:59.590Z,6.57
2023-05-01T08:00:27.791Z,6.90
2023-05-01T08:02:56.119Z,9.57
2023-05-01T08:05:24.459Z,4.77
2023-05-01T08:07:52.767Z,5.87
2023-05-01T08:10:22.383Z,5.97
2023-05-01T08:12:50.626Z,6.40
2023-05-01T08:15:18.884Z,5.33
2023-05-01T08:17:47.312Z,6.93
2023-05-01T08:20:15.640Z,7.63
2023-05-01T08:22:43.828Z,7.03
2023-05-01T08:25:12.038Z,7.53
2023-05-01T08:27:41.814Z,4.90
2023-05-01T08:30:10.258Z,5.30
2023-05-01T08:32:38.538Z,6.33
2023-05-01T08:35:07.224Z,7.50
2023-05-01T08:37:35.605Z,6.93
2023-05-01T08:40:08.348Z,4.73
2023-05-01T08:42:37.276Z,4.90
2023-05-01T08:45:09.082Z,4.60
2023-05-01T08:47:38.410Z,5.43
2023-05-01T08:50:11.381Z,8.70
2023-05-01T08:52:41.974Z,4.30
2023-05-01T08:55:13.569Z,6.07
2023-05-01T08:57:45.534Z,7.00
2023-05-01T09:00:17.916Z,5.78
2023-05-01T09:02:48.066Z,6.05
2023-05-01T09:05:20.129Z,6.45
2023-05-01T09:07:48.766Z,4.40
2023-05-01T09:10:19.105Z,4.90
2023-05-01T09:12:51.761Z,3.92
2023-05-01T09:15:21.669Z,7.63
2023-05-01T09:17:51.304Z,4.25
2023-05-01T09:20:20.544Z,4.90
2023-05-01T09:22:49.071Z,3.75
2023-05-01T09:25:17.730Z,4.35
2023-05-01T09:27:46.122Z,3.95
2023-05-01T09:30:31.651Z,4.25
2023-05-01T09:33:06.859Z,4.65
2023-05-01T09:35:49.352Z,5.28
2023-05-01T09:38:19.390Z,5.25
2023-05-01T09:40:48.939Z,4.82
2023-05-01T09:43:25.991Z,4.10
2023-05-01T09:46:06.859Z,8.13
2023-05-01T09:48:36.135Z,5.78
2023-05-01T09:51:21.256Z,4.47
2023-05-01T09:53:49.602Z,3.60
2023-05-01T09:56:18.375Z,5.25
2023-05-01T09:58:46.650Z,3.83
2023-05-01T10:01:16.356Z,4.15
2023-05-01T10:03:46.041Z,5.85
2023-05-01T10:06:14.783Z,3.72
2023-05-01T10:08:46.888Z,5.80
2023-05-01T10:11:15.134Z,3.58
2023-05-01T10:13:43.406Z,3.95
2023-05-01T10:16:30.570Z,5.60
2023-05-01T10:18:59.083Z,5.32
2023-05-01T10:21:27.848Z,6.63
2023-05-01T10:23:57.123Z,4.93
2023-05-01T10:26:26.782Z,5.43
2023-05-01T10:28:55.015Z,6.88
2023-05-01T10:31:23.286Z,5.45
2023-05-01T10:33:53.087Z,4.65
2023-05-01T10:36:22.478Z,6.20
2023-05-01T10:38:50.724Z,3.95
2023-05-01T10:41:18.966Z,4.32
2023-05-01T10:43:47.348Z,4.47
2023-05-01T10:46:33.589Z,5.05
2023-05-01T10:49:04.157Z,6.00
2023-05-01T10:51:32.530Z,4.30
2023-05-01T10:54:25.537Z,4.63
2023-05-01T10:56:54.471Z,4.95
2023-05-01T10:59:22.704Z,4.25
2023-05-01T11:01:52.714Z,3.75
2023-05-01T11:04:39.939Z,3.95
2023-05-01T11:07:19.393Z,4.05
2023-05-01T11:09:49.148Z,4.13
2023-05-01T11:12:18.342Z,5.43
2023-05-01T11:15:09.562Z,4.00
2023-05-01T11:17:47.342Z,4.40
2023-05-01T11:20:35.593Z,4.53
2023-05-01T11:23:05.246Z,3.90
2023-05-01T11:25:33.842Z,4.10
2023-05-01T11:28:03.313Z,4.07
2023-05-01T11:30:38.460Z,3.75
2023-05-01T11:33:09.150Z,3.70
2023-05-01T11:35:39.199Z,3.72
2023-05-01T11:38:18.559Z,3.90
2023-05-01T11:40:47.095Z,4.78
2023-05-01T11:43:15.330Z,4.32
2023-05-01T11:45:43.765Z,3.95
2023-05-01T11:48:17.075Z,6.03
2023-05-01T11:50:45.731Z,3.85
2023-05-01T11:53:16.655Z,5.03
2023-05-01T11:55:45.116Z,3.80
2023-05-01T11:58:13.753Z,3.97
2023-05-01T12:00:43.570Z,3.30
2023-05-01T12:03:12.809Z,4.20
2023-05-01T12:05:42.804Z,2.70
2023-05-01T12:08:12.128Z,3.78
2023-05-01T12:10:42.488Z,4.85
2023-05-01T12:13:11.923Z,3.95
2023-05-01T12:15:40.920Z,4.13
2023-05-01T12:18:09.623Z,4.55
2023-05-01T12:20:39.095Z,4.90
2023-05-01T12:23:08.000Z,3.40
2023-05-01T12:25:36.327Z,4.00
2023-05-01T12:28:10.486Z,3.22
2023-05-01T12:30:39.201Z,3.35
2023-05-01T12:33:11.306Z,3.47
2023-05-01T12:35:40.259Z,4.18
2023-05-01T12:38:15.493Z,5.03
2023-05-01T12:40:53.053Z,3.75
2023-05-01T12:43:23.544Z,5.50
2023-05-01T12:45:57.034Z,3.40
2023-05-01T12:48:25.962Z,3.20
2023-05-01T12:50:55.320Z,3.70
2023-05-01T12:53:24.218Z,3.55
2023-05-01T12:55:53.716Z,3.50
2023-05-01T12:58:23.319Z,3.70
2023-05-01T13:00:52.861Z,3.35
2023-05-01T13:03:25.612Z,3.10
2023-05-01T13:05:54.444Z,3.20
2023-05-01T13:08:29.632Z,5.32
2023-05-01T13:10:58.440Z,2.88
2023-05-01T13:13:28.950Z,4.45
2023-05-01T13:16:05.189Z,3.22
2023-05-01T13:18:34.007Z,2.97
2023-05-01T13:21:09.654Z,2.72
2023-05-01T13:23:38.592Z,3.00
2023-05-01T13:26:08.039Z,3.85
2023-05-01T13:28:41.031Z,2.92
2023-05-01T13:31:13.901Z,3.33
2023-05-01T13:33:43.468Z,3.10
2023-05-01T13:36:22.162Z,3.08
2023-05-01T13:38:55.763Z,2.75
2023-05-01T13:41:25.583Z,3.70
2023-05-01T13:43:55.955Z,6.60
2023-05-01T13:46:25.021Z,4.43
2023-05-01T13:48:53.703Z,2.22
2023-05-01T13:51:22.732Z,1.95
2023-05-01T13:53:53.478Z,1.88
2023-05-01T13:56:22.575Z,2.17
2023-05-01T13:58:51.114Z,2.97
2023-05-01T14:01:21.494Z,4.53
2023-05-01T14:03:50.712Z,2.45
2023-05-01T14:06:20.011Z,1.77
2023-05-01T14:08:49.186Z,1.63
2023-05-01T14:11:18.095Z,1.50
2023-05-01T14:13:47.084Z,1.60
2023-05-01T14:16:21.865Z,2.30
2023-05-01T14:18:53.408Z,2.38
2023-05-01T14:21:22.650Z,3.15
2023-05-01T14:23:50.984Z,2.35
2023-05-01T14:26:19.885Z,4.35
2023-05-01T14:28:48.953Z,1.20
2023-05-01T14:31:18.451Z,1.55
2023-05-01T14:33:47.240Z,1.85
2023-05-01T14:36:17.032Z,1.60
2023-05-01T14:38:49.152Z,2.15
2023-05-01T14:41:19.439Z,2.92
2023-05-01T14:43:48.138Z,3.80
2023-05-01T14:46:17.089Z,3.08
2023-05-01T14:48:45.390Z,2.50
2023-05-01T14:51:13.852Z,2.92
2023-05-01T14:53:43.754Z,3.80
2023-05-01T14:56:12.028Z,2.50
2023-05-01T14:58:40.578Z,2.67
2023-05-01T15:01:08.790Z,4.22
2023-05-01T15:03:40.899Z,2.97
2023-05-01T15:06:09.774Z,3.50
2023-05-01T15:08:38.785Z,2.90
2023-05-01T15:11:08.847Z,2.85
2023-05-01T15:13:37.070Z,3.13
2023-05-01T15:16:05.603Z,2.92
2023-05-01T15:18:35.145Z,3.88
2023-05-01T15:21:03.394Z,3.40
2023-05-01T15:23:31.797Z,3.75
2023-05-01T15:26:00.998Z,2.50
2023-05-01T15:28:31.196Z,2.67
2023-05-01T15:30:59.364Z,3.22
2023-05-01T15:33:27.785Z,3.13
2023-05-01T15:35:56.087Z,2.60
2023-05-01T15:38:25.137Z,2.20
2023-05-01T15:40:53.709Z,4.50
2023-05-01T15:43:22.757Z,5.28
2023-05-01T15:45:53.022Z,4.30
2023-05-01T15:48:21.473Z,4.95
2023-05-01T15:50:49.749Z,4.70
2023-05-01T15:53:17.968Z,7.32
2023-05-01T15:55:46.188Z,3.97
2023-05-01T15:58:15.052Z,2.88
2023-05-01T16:00:43.590Z,3.22
2023-05-01T16:03:13.277Z,3.05
2023-05-01T16:05:42.206Z,3.40
2023-05-01T16:08:10.491Z,4.18
2023-05-01T16:10:39.159Z,4.63
2023-05-01T16:13:07.760Z,3.83
2023-05-01T16:15:36.090Z,7.97
2023-05-01T16:18:04.875Z,4.47
2023-05-01T16:20:36.893Z,5.60
2023-05-01T16:23:05.103Z,5.47
2023-05-01T16:25:33.299Z,8.00
2023-05-01T16:28:01.814Z,6.75
2023-05-01T16:30:30.034Z,8.15
2023-05-01T16:32:58.282Z,6.60
2023-05-01T16:35:28.443Z,4.43
2023-05-01T16:37:58.124Z,5.78
2023-05-01T16:40:26.354Z,7.00
2023-05-01T16:42:56.123Z,6.47
2023-05-01T16:45:27.870Z,5.25
2023-05-01T16:47:56.343Z,4.53
2023-05-01T16:50:24.599Z,5.45
2023-05-01T16:52:54.926Z,4.47
2023-05-01T16:55:24.570Z,9.30
2023-05-01T16:57:53.097Z,4.70
2023-05-01T17:00:21.693Z,3.67
2023-05-01T17:02:51.801Z,4.80
2023-05-01T17:05:22.078Z,3.10
2023-05-01T17:07:50.465Z,3.60
2023-05-01T17:10:22.709Z,4.47
2023-05-01T17:12:54.543Z,3.77
2023-05-01T17:15:31.731Z,3.33
2023-05-01T17:18:00.126Z,2.93
2023-05-01T17:20:28.507Z,2.73
2023-05-01T17:22:56.753Z,3.33
2023-05-01T17:25:24.924Z,3.03
2023-05-01T17:27:54.997Z,2.87
2023-05-01T17:30:23.185Z,2.67
2023-05-01T17:32:51.810Z,2.47
2023-05-01T17:35:20.072Z,2.60
2023-05-01T17:37:48.302Z,3.00
2023-05-01T17:40:16.486Z,3.13
2023-05-01T17:42:45.425Z,3.10
2023-05-01T17:45:15.013Z,3.53
2023-05-01T17:47:46.568Z,3.77
2023-05-01T17:50:19.538Z,3.50
2023-05-01T17:52:47.824Z,3.87
2023-05-01T17:55:18.045Z,4.90
2023-05-01T17:57:47.746Z,3.90
2023-05-01T18:00:18.014Z,4.77
2023-05-01T18:02:47.520Z,3.90
2023-05-01T18:05:42.162Z,3.60
2023-05-01T18:08:10.851Z,3.90
2023-05-01T18:10:39.110Z,3.93
2023-05-01T18:13:07.321Z,3.63
2023-05-01T18:15:36.912Z,4.23
2023-05-01T18:18:05.422Z,4.50
2023-05-01T18:20:33.747Z,3.83
2023-05-01T18:23:02.848Z,4.87
2023-05-01T18:25:31.165Z,5.00
2023-05-01T18:28:00.645Z,4.50
2023-05-01T18:30:29.398Z,4.87
2023-05-01T18:32:59.418Z,5.87
2023-05-01T18:35:28.646Z,3.33
2023-05-01T18:37:57.399Z,4.13
2023-05-01T18:40:29.122Z,4.37
2023-05-01T18:42:58.221Z,4.37
2023-05-01T18:45:26.486Z,5.30
2023-05-01T18:47:54.834Z,5.83
2023-05-01T18:50:25.213Z,4.93
2023-05-01T18:52:53.615Z,4.03
2023-05-01T18:55:24.608Z,4.33
2023-05-01T18:57:53.959Z,4.07
2023-05-01T19:00:28.009Z,5.17
2023-05-01T19:02:57.400Z,5.50
2023-05-01T19:05:27.376Z,4.80
2023-05-01T19:08:02.291Z,4.53
2023-05-01T19:10:31.042Z,5.77
2023-05-01T19:13:00.746Z,4.73
2023-05-01T19:15:29.979Z,8.33
2023-05-01T19:17:59.498Z,5.73
2023-05-01T19:20:29.870Z,6.90
2023-05-01T19:22:58.299Z,5.90
2023-05-01T19:25:29.521Z,5.97
2023-05-01T19:27:58.444Z,6.63
2023-05-01T19:30:27.116Z,7.57
2023-05-01T19:32:58.204Z,6.03
2023-05-01T19:35:26.796Z,6.33
2023-05-01T19:38:02.098Z,6.70
2023-05-01T19:40:31.496Z,5.40
2023-05-01T19:43:01.925Z,6.20
2023-05-01T19:45:31.706Z,6.00
2023-05-01T19:48:01.211Z,5.20
2023-05-01T19:50:31.278Z,5.23
2023-05-01T19:53:02.145Z,5.90
2023-05-01T19:55:30.466Z,5.27
2023-05-01T19:57:59.219Z,5.70
2023-05-01T20:00:28.612Z,6.20
2023-05-01T20:02:57.711Z,4.87
2023-05-01T20:05:28.272Z,6.80
2023-05-01T20:07:58.722Z,4.80
2023-05-01T20:10:29.016Z,4.87
2023-05-01T20:12:58.765Z,5.37
2023-05-01T20:15:27.775Z,6.90
2023-05-01T20:17:59.180Z,5.77
2023-05-01T20:20:27.468Z,9.00
2023-05-01T20:23:10.681Z,6.53
2023-05-01T20:25:42.256Z,6.20
2023-05-01T20:28:11.614Z,11.30
2023-05-01T20:30:41.100Z,9.10
2023-05-01T20:33:10.437Z,6.93
2023-05-01T20:35:40.242Z,8.37
2023-05-01T20:38:08.642Z,8.83
2023-05-01T20:40:40.105Z,7.43
2023-05-01T20:43:10.702Z,8.50
2023-05-01T20:45:39.683Z,9.13
2023-05-01T20:48:08.740Z,10.63
2023-05-01T20:50:37.272Z,9.67
2023-05-01T20:53:05.604Z,8.73
2023-05-01T20:55:33.970Z,10.07
2023-05-01T20:58:02.253Z,11.50
2023-05-01T21:00:32.019Z,10.10
2023-05-01T21:03:01.341Z,10.47
2023-05-01T21:05:29.749Z,12.10
2023-05-01T21:07:58.853Z,10.90
2023-05-01T21:10:27.213Z,11.17
2023-05-01T21:12:56.131Z,10.93
2023-05-01T21:15:24.616Z,11.60
2023-05-01T21:17:54.333Z,12.07
2023-05-01T21:20:30.877Z,15.53
2023-05-01T21:22:59.167Z,14.93
2023-05-01T21:25:28.413Z,13.33
2023-05-01T21:28:02.169Z,13.23
2023-05-01T21:30:33.385Z,12.90
2023-05-01T21:33:06.465Z,13.63
2023-05-01T21:35:35.359Z,13.33
2023-05-01T21:38:05.754Z,13.30
2023-05-01T21:40:38.310Z,13.07
2023-05-01T21:43:07.577Z,13.10
2023-05-01T21:45:40.249Z,13.73
2023-05-01T21:48:10.467Z,13.27
2023-05-01T21:50:39.191Z,13.93
2023-05-01T21:53:07.942Z,13.67
2023-05-01T21:55:37.466Z,16.10
2023-05-01T21:58:05.824Z,14.13
2023-05-01T22:00:34.739Z,13.00
2023-05-01T22:03:07.015Z,13.47
2023-05-01T22:05:41.532Z,13.77
2023-05-01T22:08:09.933Z,14.20
2023-05-01T22:10:41.129Z,14.10
2023-05-01T22:13:09.406Z,14.57
2023-05-01T22:15:37.894Z,14.70
2023-05-01T22:18:07.100Z,14.73
2023-05-01T22:20:37.121Z,16.77
2023-05-01T22:23:06.028Z,15.53
2023-05-01T22:25:34.661Z,16.73
2023-05-01T22:28:04.387Z,15.83
2023-05-01T22:30:34.761Z,16.63
2023-05-01T22:33:03.986Z,16.93
2023-05-01T22:35:32.648Z,17.90
2023-05-01T22:38:02.361Z,20.37
2023-05-01T22:40:30.845Z,18.97
2023-05-01T22:42:59.719Z,19.43
2023-05-01T22:45:28.054Z,19.13
2023-05-01T22:47:57.649Z,19.90
2023-05-01T22:50:27.192Z,19.47
2023-05-01T22:52:56.428Z,19.23
2023-05-01T22:55:26.746Z,19.03
2023-05-01T22:57:55.094Z,19.30
2023-05-01T23:00:23.419Z,20.23
2023-05-01T23:02:52.308Z,20.77
2023-05-01T23:05:21.172Z,21.20
2023-05-01T23:07:51.120Z,24.83
2023-05-01T23:10:19.840Z,24.40
2023-05-01T23:12:49.507Z,24.83
2023-05-01T23:15:24.347Z,25.73
2023-05-01T23:17:53.031Z,26.97
2023-05-01T23:20:22.496Z,26.27
2023-05-01T23:22:51.932Z,26.67
2023-05-01T23:25:23.475Z,26.93
2023-05-01T23:27:55.791Z,28.90
2023-05-01T23:30:24.160Z,26.13
2023-05-01T23:32:53.043Z,22.60
2023-05-01T23:35:24.339Z,23.33
2023-05-01T23:37:53.611Z,24.73
2023-05-01T23:40:22.119Z,22.40
2023-05-01T23:42:51.366Z,24.60
2023-05-01T23:45:22.028Z,23.17
2023-05-01T23:47:50.629Z,20.50
2023-05-01T23:50:19.217Z,23.37
2023-05-01T23:52:47.671Z,19.90
2023-05-01T23:55:15.995Z,22.40
2023-05-01T23:57:44.284Z,20.17
